Time;durP1;ratioP1;P1;durP2;ratioP2;P2;SDS_P1;SDS_P2;PMS_P1;PMS_P2;Temp;Humidity;BMP_temperature;BMP_pressure;BME280_temperature;BME280_humidity;BME280_pressure;Samples;Min_cycle;Max_cycle;Signal;HPM_P1;HPM_P2
2023/03/25 00:00:18;;;;;;;16.73;8.30;;;;;;;;;;10463565;28;20059;-86
2023/03/25 00:05:20;;;;;;;16.60;8.63;;;;;;;;;;10469429;28;20459;-86
2023/03/25 00:10:24;;;;;;;14.18;7.68;;;;;;;;;;10472843;28;20032;-86
2023/03/25 00:15:25;;;;;;;17.58;7.78;;;;;;;;;;10467021;28;20044;-86
2023/03/25 00:20:26;;;;;;;20.17;8.85;;;;;;;;;;10459507;28;20029;-86
2023/03/25 00:25:27;;;;;;;14.50;8.73;;;;;;;;;;10464226;28;20083;-86
2023/03/25 00:30:28;;;;;;;14.50;9.45;;;;;;;;;;10465725;28;20041;-87
2023/03/25 00:35:29;;;;;;;16.45;9.60;;;;;;;;;;10444356;28;20033;-86
2023/03/25 00:40:33;;;;;;;18.00;10.05;;;;;;;;;;10434852;28;20038;-87
2023/03/25 00:45:35;;;;;;;16.98;10.25;;;;;;;;;;10436064;28;20041;-86
2023/03/25 00:50:35;;;;;;;15.68;9.50;;;;;;;;;;10461868;28;20112;-86
2023/03/25 00:55:40;;;;;;;20.23;10.73;;;;;;;;;;10431903;28;20032;-86
2023/03/25 01:00:41;;;;;;;20.10;12.55;;;;;;;;;;10445413;28;20032;-86
2023/03/25 01:05:42;;;;;;;15.73;10.93;;;;;;;;;;10425721;28;20048;-86
2023/03/25 01:10:43;;;;;;;11.15;6.90;;;;;;;;;;10425289;28;20032;-87
2023/03/25 01:15:44;;;;;;;9.93;6.13;;;;;;;;;;10425354;28;20146;-85
2023/03/25 01:20:45;;;;;;;10.13;5.78;;;;;;;;;;10462091;28;20147;-87
2023/03/25 01:25:48;;;;;;;7.10;4.68;;;;;;;;;;10424657;28;20040;-85
2023/03/25 01:30:49;;;;;;;10.00;4.65;;;;;;;;;;10427604;28;20041;-86
2023/03/25 01:35:50;;;;;;;6.03;3.70;;;;;;;;;;10446299;28;20465;-86
2023/03/25 01:40:52;;;;;;;6.25;3.50;;;;;;;;;;10448320;28;20020;-86
2023/03/25 01:45:53;;;;;;;5.88;3.33;;;;;;;;;;10461713;28;20041;-87
2023/03/25 01:50:57;;;;;;;7.72;4.00;;;;;;;;;;10476524;28;20020;-86
2023/03/25 01:56:01;;;;;;;7.47;4.25;;;;;;;;;;10451496;28;20819;-87
2023/03/25 02:01:04;;;;;;;5.88;3.20;;;;;;;;;;10451892;28;20040;-86
2023/03/25 02:06:13;;;;;;;6.82;3.67;;;;;;;;;;10431348;28;20666;-87
2023/03/25 02:11:14;;;;;;;6.63;5.03;;;;;;;;;;10477975;28;20033;-86
2023/03/25 02:16:33;;;;;;;8.20;4.78;;;;;;;;;;10460307;28;20057;-86
2023/03/25 02:21:49;;;;;;;7.70;5.13;;;;;;;;;;10471374;28;20024;-86
2023/03/25 02:26:54;;;;;;;8.90;4.43;;;;;;;;;;10425335;28;20041;-86
2023/03/25 02:31:55;;;;;;;8.48;4.63;;;;;;;;;;10427518;28;20048;-86
2023/03/25 02:37:05;;;;;;;7.35;4.40;;;;;;;;;;10462810;28;20033;-85
2023/03/25 02:42:16;;;;;;;11.35;5.80;;;;;;;;;;10447832;28;20021;-85
2023/03/25 02:47:21;;;;;;;8.18;4.95;;;;;;;;;;10443037;28;20465;-86
2023/03/25 02:52:25;;;;;;;12.65;6.25;;;;;;;;;;10431649;28;20037;-85
2023/03/25 02:57:31;;;;;;;13.50;6.90;;;;;;;;;;10446592;28;20809;-86
2023/03/25 03:02:35;;;;;;;14.27;7.20;;;;;;;;;;10426950;28;20033;-88
2023/03/25 03:07:41;;;;;;;12.38;6.03;;;;;;;;;;10404975;28;20140;-86
2023/03/25 03:13:01;;;;;;;11.68;6.50;;;;;;;;;;10432735;28;20408;-85
2023/03/25 03:18:12;;;;;;;19.92;7.95;;;;;;;;;;10447846;28;20106;-86
2023/03/25 03:23:23;;;;;;;12.43;7.03;;;;;;;;;;10461876;28;20502;-86
2023/03/25 03:28:33;;;;;;;12.68;7.68;;;;;;;;;;10459925;28;20028;-87
2023/03/25 03:33:41;;;;;;;13.65;7.38;;;;;;;;;;10437675;28;20032;-86
2023/03/25 03:39:00;;;;;;;13.48;7.88;;;;;;;;;;10487968;28;20040;-85
2023/03/25 03:44:03;;;;;;;14.30;7.78;;;;;;;;;;10441029;28;20539;-86
2023/03/25 03:49:09;;;;;;;13.73;8.05;;;;;;;;;;10440090;28;20037;-84
2023/03/25 03:54:21;;;;;;;17.73;10.13;;;;;;;;;;10435329;28;20385;-84
2023/03/25 03:59:34;;;;;;;15.60;8.77;;;;;;;;;;10432619;28;20075;-83
2023/03/25 04:04:37;;;;;;;17.67;10.60;;;;;;;;;;10439604;28;20047;-83
2023/03/25 04:09:53;;;;;;;22.67;12.27;;;;;;;;;;10471420;28;20031;-84
2023/03/25 04:14:55;;;;;;;17.20;10.18;;;;;;;;;;10465799;28;20047;-83
2023/03/25 04:19:56;;;;;;;14.90;8.77;;;;;;;;;;10457587;28;20037;-83
2023/03/25 04:24:59;;;;;;;27.00;15.40;;;;;;;;;;10457201;28;20039;-83
2023/03/25 04:30:00;;;;;;;17.50;9.23;;;;;;;;;;10444574;28;20033;-84
2023/03/25 04:35:02;;;;;;;16.97;8.93;;;;;;;;;;10445654;28;20036;-84
2023/03/25 04:40:05;;;;;;;19.75;9.95;;;;;;;;;;10441273;28;20028;-84
2023/03/25 04:45:13;;;;;;;25.25;10.82;;;;;;;;;;10462260;28;20040;-85
2023/03/25 04:50:18;;;;;;;15.93;8.57;;;;;;;;;;10479133;28;20484;-84
2023/03/25 04:55:20;;;;;;;19.00;10.27;;;;;;;;;;10485998;28;20028;-83
2023/03/25 05:00:22;;;;;;;20.67;12.97;;;;;;;;;;10447244;28;20087;-84
2023/03/25 05:05:24;;;;;;;22.47;12.63;;;;;;;;;;10438879;28;20120;-84
2023/03/25 05:10:28;;;;;;;18.10;10.67;;;;;;;;;;10470112;28;20563;-83
2023/03/25 05:15:31;;;;;;;46.95;19.10;;;;;;;;;;10459881;28;20397;-83
2023/03/25 05:20:38;;;;;;;31.08;14.27;;;;;;;;;;10425323;28;20029;-84
2023/03/25 05:25:40;;;;;;;20.33;12.03;;;;;;;;;;10438528;28;20613;-85
2023/03/25 05:30:44;;;;;;;24.70;12.68;;;;;;;;;;10446994;28;20445;-83
2023/03/25 05:35:46;;;;;;;31.40;16.98;;;;;;;;;;10444096;28;20145;-82
2023/03/25 05:40:47;;;;;;;29.27;17.17;;;;;;;;;;10470545;28;20124;-84
2023/03/25 05:45:55;;;;;;;23.40;13.50;;;;;;;;;;10454203;28;20435;-84
2023/03/25 05:50:59;;;;;;;23.50;12.73;;;;;;;;;;10451171;28;20028;-84
2023/03/25 05:56:00;;;;;;;19.58;11.35;;;;;;;;;;10476976;28;20502;-84
2023/03/25 06:01:04;;;;;;;20.95;11.52;;;;;;;;;;10463913;28;20033;-83
2023/03/25 06:06:12;;;;;;;17.50;10.25;;;;;;;;;;10455184;28;20111;-83
2023/03/25 06:11:13;;;;;;;20.17;12.23;;;;;;;;;;10463564;28;20472;-85
2023/03/25 06:16:17;;;;;;;21.40;11.20;;;;;;;;;;10425967;28;20059;-83
2023/03/25 06:21:23;;;;;;;18.13;10.63;;;;;;;;;;10423917;28;20064;-85
2023/03/25 06:26:26;;;;;;;19.08;10.85;;;;;;;;;;10431447;28;20042;-85
2023/03/25 06:31:27;;;;;;;22.17;10.55;;;;;;;;;;10402970;28;20029;-85
2023/03/25 06:36:28;;;;;;;20.38;10.70;;;;;;;;;;10399294;28;20669;-84
2023/03/25 06:41:29;;;;;;;19.52;10.82;;;;;;;;;;10409057;28;20028;-83
2023/03/25 06:46:32;;;;;;;15.63;8.60;;;;;;;;;;10412632;28;20041;-83
2023/03/25 06:51:34;;;;;;;13.45;8.07;;;;;;;;;;10429198;28;20033;-83
2023/03/25 06:56:35;;;;;;;16.70;8.93;;;;;;;;;;10405913;28;20033;-84
2023/03/25 07:01:35;;;;;;;14.85;7.20;;;;;;;;;;10422025;28;20056;-85
2023/03/25 07:06:36;;;;;;;11.77;6.95;;;;;;;;;;10410674;28;20049;-86
2023/03/25 07:11:37;;;;;;;18.08;8.20;;;;;;;;;;10404845;28;20039;-86
2023/03/25 07:16:39;;;;;;;10.45;7.05;;;;;;;;;;10444748;28;20049;-85
2023/03/25 07:21:40;;;;;;;11.35;6.35;;;;;;;;;;10464837;28;20166;-84
2023/03/25 07:26:43;;;;;;;12.82;7.10;;;;;;;;;;10476452;28;20032;-84
2023/03/25 07:31:45;;;;;;;13.82;6.85;;;;;;;;;;10447679;28;20345;-83
2023/03/25 07:36:46;;;;;;;13.43;6.28;;;;;;;;;;10454623;28;20717;-83
2023/03/25 07:41:47;;;;;;;13.57;5.97;;;;;;;;;;10453645;28;20082;-85
2023/03/25 07:46:50;;;;;;;9.18;5.80;;;;;;;;;;10429769;28;20045;-84
2023/03/25 07:51:51;;;;;;;11.48;5.50;;;;;;;;;;10456819;28;20041;-83
2023/03/25 07:56:54;;;;;;;9.82;5.38;;;;;;;;;;10429883;28;20025;-84
2023/03/25 08:01:55;;;;;;;11.40;5.53;;;;;;;;;;10454161;28;20044;-84
2023/03/25 08:06:56;;;;;;;9.93;5.22;;;;;;;;;;10457704;28;20040;-88
2023/03/25 08:11:57;;;;;;;8.07;5.32;;;;;;;;;;10439399;28;20031;-85
2023/03/25 08:16:58;;;;;;;9.77;5.93;;;;;;;;;;10445528;28;20114;-86
2023/03/25 08:21:59;;;;;;;16.50;8.43;;;;;;;;;;10441907;28;20103;-85
2023/03/25 08:27:00;;;;;;;9.55;5.30;;;;;;;;;;10447224;28;20072;-82
2023/03/25 08:32:05;;;;;;;9.95;4.85;;;;;;;;;;10442971;28;20056;-84
2023/03/25 08:37:06;;;;;;;7.80;4.72;;;;;;;;;;10444338;28;20024;-83
2023/03/25 08:42:08;;;;;;;10.40;4.70;;;;;;;;;;10415265;28;20339;-84
2023/03/25 08:47:09;;;;;;;8.82;5.07;;;;;;;;;;10424637;28;20035;-84
2023/03/25 08:52:10;;;;;;;9.07;4.30;;;;;;;;;;10436530;28;20072;-83
2023/03/25 08:57:11;;;;;;;9.55;5.50;;;;;;;;;;10429142;28;20195;-83
2023/03/25 09:02:12;;;;;;;12.10;5.93;;;;;;;;;;10418627;28;20039;-83
2023/03/25 09:07:13;;;;;;;7.65;3.85;;;;;;;;;;10424438;28;20045;-85
2023/03/25 09:12:14;;;;;;;8.05;4.22;;;;;;;;;;10422810;28;20029;-84
2023/03/25 09:17:15;;;;;;;6.57;3.35;;;;;;;;;;10436918;28;20132;-84
2023/03/25 09:22:16;;;;;;;11.82;4.00;;;;;;;;;;10467348;23;20064;-86
2023/03/25 09:27:17;;;;;;;8.77;3.42;;;;;;;;;;10446653;28;20040;-86
2023/03/25 09:32:18;;;;;;;9.57;4.13;;;;;;;;;;10466569;23;20057;-83
2023/03/25 09:37:19;;;;;;;6.72;2.85;;;;;;;;;;10426931;28;20036;-84
2023/03/25 09:42:23;;;;;;;6.97;2.92;;;;;;;;;;10459432;28;20032;-84
2023/03/25 09:47:32;;;;;;;5.65;2.25;;;;;;;;;;10467414;28;20049;-83
2023/03/25 09:52:36;;;;;;;8.57;2.53;;;;;;;;;;10454836;28;20037;-82
2023/03/25 09:57:48;;;;;;;5.90;3.20;;;;;;;;;;10470622;28;20396;-83
2023/03/25 10:02:58;;;;;;;4.55;2.45;;;;;;;;;;10471686;28;20430;-83
2023/03/25 10:08:04;;;;;;;5.07;2.95;;;;;;;;;;10471655;28;20102;-83
2023/03/25 10:13:20;;;;;;;9.27;4.93;;;;;;;;;;10483206;28;20114;-86
2023/03/25 10:18:47;;;;;;;19.90;9.57;;;;;;;;;;10454243;28;20025;-85
2023/03/25 10:23:53;;;;;;;13.00;7.18;;;;;;;;;;10471566;28;20090;-84
2023/03/25 10:29:00;;;;;;;16.48;7.65;;;;;;;;;;10456892;28;20064;-85
2023/03/25 10:34:17;;;;;;;13.65;6.53;;;;;;;;;;10456353;28;20070;-90
2023/03/25 10:39:19;;;;;;;15.60;8.77;;;;;;;;;;10498784;22;20426;-89
2023/03/25 10:44:22;;;;;;;15.30;8.30;;;;;;;;;;10488427;28;20046;-88
2023/03/25 10:49:28;;;;;;;17.05;8.60;;;;;;;;;;10479865;28;20468;-89
2023/03/25 10:54:51;;;;;;;16.40;8.30;;;;;;;;;;10476236;28;20039;-88
2023/03/25 11:11:04;;;;;;;9.18;4.65;;;;;;;;;;10482002;28;20495;-88
2023/03/25 11:27:30;;;;;;;11.27;6.05;;;;;;;;;;10516807;28;20052;-87
2023/03/25 11:32:51;;;;;;;11.02;5.75;;;;;;;;;;10485660;28;20552;-88
2023/03/25 11:53:51;;;;;;;7.25;4.10;;;;;;;;;;10703813;22;20061;-87
2023/03/25 11:59:15;;;;;;;6.07;3.45;;;;;;;;;;10405563;28;20033;-86
2023/03/25 12:04:21;;;;;;;4.97;3.75;;;;;;;;;;10368861;28;20056;-88
2023/03/25 12:31:47;;;;;;;12.07;6.45;;;;;;;;;;10996398;22;20048;-88
2023/03/25 13:03:40;;;;;;;4.82;2.88;;;;;;;;;;11285157;23;20399;-85
2023/03/25 13:09:03;;;;;;;7.38;3.83;;;;;;;;;;10340933;28;20098;-86
2023/03/25 13:14:12;;;;;;;8.68;3.60;;;;;;;;;;10335181;28;20030;-88
2023/03/25 13:19:14;;;;;;;10.63;2.95;;;;;;;;;;10310205;28;20037;-88
2023/03/25 13:24:22;;;;;;;8.93;4.30;;;;;;;;;;10315603;28;20086;-85
2023/03/25 13:35:22;;;;;;;6.63;4.53;;;;;;;;;;10322117;28;20604;-85
2023/03/25 13:40:27;;;;;;;8.95;5.00;;;;;;;;;;10336363;28;20138;-86
2023/03/25 13:45:43;;;;;;;8.90;5.25;;;;;;;;;;10320699;28;20046;-87
2023/03/25 13:50:47;;;;;;;13.15;7.82;;;;;;;;;;10319941;28;20030;-89
2023/03/25 13:56:12;;;;;;;7.60;3.90;;;;;;;;;;10314089;28;20027;-88
2023/03/25 14:01:13;;;;;;;17.65;8.63;;;;;;;;;;10314761;28;20480;-87
2023/03/25 14:06:17;;;;;;;27.05;11.55;;;;;;;;;;10326579;28;20133;-91
2023/03/25 14:11:27;;;;;;;8.27;4.18;;;;;;;;;;10320212;28;20034;-87
2023/03/25 14:16:37;;;;;;;7.78;3.22;;;;;;;;;;10327162;28;20078;-85
2023/03/25 14:21:38;;;;;;;9.48;4.90;;;;;;;;;;10322051;28;20060;-86
2023/03/25 14:27:03;;;;;;;12.38;5.50;;;;;;;;;;10317090;28;20528;-86
2023/03/25 14:32:11;;;;;;;5.88;3.63;;;;;;;;;;10309251;28;20042;-87
2023/03/25 14:37:25;;;;;;;6.95;2.90;;;;;;;;;;10300303;28;20018;-84
2023/03/25 14:42:28;;;;;;;6.25;3.10;;;;;;;;;;10322496;28;20041;-84
2023/03/25 14:47:30;;;;;;;10.30;4.53;;;;;;;;;;10335917;28;20046;-84
2023/03/25 14:52:46;;;;;;;4.80;2.70;;;;;;;;;;10323389;28;20502;-86
2023/03/25 14:57:51;;;;;;;6.68;2.20;;;;;;;;;;10319910;28;20026;-86
2023/03/25 15:24:49;;;;;;;7.28;2.88;;;;;;;;;;10309960;28;20057;-86
2023/03/25 15:30:36;;;;;;;;;;;;;;;;;;;;;
2023/03/25 15:41:55;;;;;;;3.53;2.47;;;;;;;;;;10317293;28;20121;-87
2023/03/25 15:57:53;;;;;;;6.13;2.63;;;;;;;;;;12299442;23;20063;-87
2023/03/25 16:24:33;;;;;;;49.93;23.20;;;;;;;;;;10573804;23;20058;-86
2023/03/25 16:30:29;;;;;;;88.97;49.87;;;;;;;;;;10279977;28;20027;-86
2023/03/25 16:41:06;;;;;;;108.40;57.03;;;;;;;;;;10270945;28;20074;-86
2023/03/25 16:56:41;;;;;;;190.67;100.40;;;;;;;;;;12349312;23;20262;-87
2023/03/25 17:37:23;;;;;;;35.17;18.13;;;;;;;;;;11858257;24;20031;31
2023/03/25 17:48:23;;;;;;;58.73;27.63;;;;;;;;;;9700541;30;20103;-88
2023/03/25 17:53:38;;;;;;;81.00;33.93;;;;;;;;;;9713129;30;20049;-88
2023/03/25 17:58:42;;;;;;;105.20;49.80;;;;;;;;;;9696281;30;20040;-88
2023/03/25 18:25:26;;;;;;;115.00;60.00;;;;;;;;;;9726540;30;20053;-87
2023/03/25 18:36:11;;;;;;;86.13;43.23;;;;;;;;;;9752426;30;20035;-86
2023/03/25 18:41:16;;;;;;;110.47;61.10;;;;;;;;;;9815825;30;20043;-87
2023/03/25 18:46:24;;;;;;;156.37;84.53;;;;;;;;;;9813354;30;20063;-86
2023/03/25 18:51:32;;;;;;;128.57;62.63;;;;;;;;;;9808716;30;20055;-86
2023/03/25 18:56:41;;;;;;;199.00;90.97;;;;;;;;;;9815689;30;20055;-89
2023/03/25 19:07:24;;;;;;;159.53;69.83;;;;;;;;;;9819429;30;20180;-87
2023/03/25 19:12:25;;;;;;;137.03;65.30;;;;;;;;;;9808493;30;20543;-87
2023/03/25 19:17:32;;;;;;;99.50;50.97;;;;;;;;;;9809931;30;20500;-86
2023/03/25 19:22:34;;;;;;;89.70;43.37;;;;;;;;;;9813217;30;20060;-85
2023/03/25 19:27:35;;;;;;;72.33;35.73;;;;;;;;;;9824627;30;20044;-84
2023/03/25 19:32:36;;;;;;;59.80;29.33;;;;;;;;;;9826954;30;20440;-89
2023/03/25 19:37:37;;;;;;;54.00;27.07;;;;;;;;;;9810400;30;20032;-85
2023/03/25 19:42:38;;;;;;;58.67;29.83;;;;;;;;;;9809799;30;20036;-86
2023/03/25 19:47:41;;;;;;;63.07;31.57;;;;;;;;;;9806325;30;20040;-86
2023/03/25 19:52:45;;;;;;;70.97;34.67;;;;;;;;;;9818043;30;20040;-87
2023/03/25 19:57:46;;;;;;;109.90;53.97;;;;;;;;;;9807808;30;20044;-86
2023/03/25 20:02:51;;;;;;;150.33;76.90;;;;;;;;;;9816013;30;20036;-86
2023/03/25 20:07:54;;;;;;;150.10;82.93;;;;;;;;;;9804659;30;20500;-85
2023/03/25 20:12:55;;;;;;;141.80;74.77;;;;;;;;;;9796748;30;20137;-87
2023/03/25 20:17:56;;;;;;;180.57;99.70;;;;;;;;;;9821336;30;20393;-88
2023/03/25 20:22:58;;;;;;;250.40;117.73;;;;;;;;;;9808077;30;20060;-87
2023/03/25 20:27:59;;;;;;;132.43;69.63;;;;;;;;;;9799717;30;20047;-87
2023/03/25 20:33:00;;;;;;;164.03;79.20;;;;;;;;;;9816424;30;20044;-87
2023/03/25 20:38:01;;;;;;;156.00;75.00;;;;;;;;;;9809529;30;20028;-87
2023/03/25 20:43:02;;;;;;;152.07;73.40;;;;;;;;;;9807732;30;20775;-87
2023/03/25 20:48:04;;;;;;;128.60;62.57;;;;;;;;;;9808120;30;20102;-87
2023/03/25 20:53:05;;;;;;;122.73;58.17;;;;;;;;;;9809582;30;20135;-88
2023/03/25 20:58:07;;;;;;;109.90;53.63;;;;;;;;;;9820963;30;20042;-86
2023/03/25 21:03:09;;;;;;;76.50;36.93;;;;;;;;;;9822407;30;20098;-87
2023/03/25 21:08:14;;;;;;;58.23;27.83;;;;;;;;;;9805037;30;20798;-87
2023/03/25 21:13:15;;;;;;;49.93;24.70;;;;;;;;;;9797668;30;20039;-89
2023/03/25 21:18:18;;;;;;;49.67;23.57;;;;;;;;;;9819712;30;20040;-87
2023/03/25 21:23:19;;;;;;;45.03;23.27;;;;;;;;;;9808574;30;20052;-87
2023/03/25 21:28:20;;;;;;;53.27;24.47;;;;;;;;;;9797527;30;20036;-88
2023/03/25 21:33:21;;;;;;;44.40;17.77;;;;;;;;;;9797183;30;20032;-89
2023/03/25 21:38:22;;;;;;;36.23;13.13;;;;;;;;;;9820668;30;20046;-87
2023/03/25 21:43:23;;;;;;;14.27;6.40;;;;;;;;;;9816934;30;20024;-87
2023/03/25 21:48:27;;;;;;;21.90;8.27;;;;;;;;;;9814275;30;20049;-89
2023/03/25 21:53:43;;;;;;;15.63;6.27;;;;;;;;;;9802733;30;20041;-84
2023/03/25 21:58:45;;;;;;;9.57;4.30;;;;;;;;;;9805184;30;20035;-86
2023/03/25 22:03:46;;;;;;;7.83;4.20;;;;;;;;;;9818590;30;20028;-84
2023/03/25 22:08:47;;;;;;;10.37;3.70;;;;;;;;;;9815565;30;20490;-85
2023/03/25 22:13:51;;;;;;;9.90;4.50;;;;;;;;;;9820219;30;20549;-85
2023/03/25 22:18:52;;;;;;;13.47;5.90;;;;;;;;;;9804355;30;20068;-86
2023/03/25 22:23:54;;;;;;;12.10;5.80;;;;;;;;;;9815163;30;20497;-85
2023/03/25 22:28:56;;;;;;;9.57;5.70;;;;;;;;;;9826271;30;20278;-87
2023/03/25 22:34:02;;;;;;;12.50;6.50;;;;;;;;;;9827960;30;20609;-85
2023/03/25 22:39:05;;;;;;;11.00;5.50;;;;;;;;;;9811060;30;20027;-86
2023/03/25 22:44:06;;;;;;;6.43;4.13;;;;;;;;;;9820800;30;20600;-88
2023/03/25 22:49:07;;;;;;;8.10;4.77;;;;;;;;;;9827447;30;20051;-87
2023/03/25 22:54:09;;;;;;;12.33;5.47;;;;;;;;;;9820637;30;20468;-86
2023/03/25 22:59:11;;;;;;;8.87;3.97;;;;;;;;;;9827150;30;20465;-86
2023/03/25 23:04:15;;;;;;;12.07;5.30;;;;;;;;;;9817318;30;20122;-87
2023/03/25 23:09:40;;;;;;;20.20;7.43;;;;;;;;;;9809654;30;20505;-86
2023/03/25 23:14:38;;;;;;;10.17;4.43;;;;;;;;;;9818081;30;20794;-85
2023/03/25 23:19:39;;;;;;;10.77;5.00;;;;;;;;;;9816846;30;20056;-87
2023/03/25 23:24:41;;;;;;;8.57;4.80;;;;;;;;;;9809952;30;20040;-86
2023/03/25 23:29:42;;;;;;;8.70;4.47;;;;;;;;;;9810138;30;20045;-86
2023/03/25 23:34:44;;;;;;;9.20;5.10;;;;;;;;;;9809866;30;20544;-86
2023/03/25 23:39:45;;;;;;;11.23;5.67;;;;;;;;;;9809748;30;20351;-85
2023/03/25 23:44:47;;;;;;;12.13;6.00;;;;;;;;;;9825067;30;20036;-87
2023/03/25 23:49:48;;;;;;;15.83;7.17;;;;;;;;;;9825342;30;20097;-85
2023/03/25 23:54:49;;;;;;;10.57;5.80;;;;;;;;;;9825002;30;20462;-85
2023/03/25 23:59:50;;;;;;;14.63;7.53;;;;;;;;;;9824622;30;20040;-86
